Time;durP1;ratioP1;P1;durP2;ratioP2;P2;SDS_P1;SDS_P2;PMS_P1;PMS_P2;Temp;Humidity;BMP_temperature;BMP_pressure;BME280_temperature;BME280_humidity;BME280_pressure;Samples;Min_cycle;Max_cycle;Signal;HPM_P1;HPM_P2
2023/07/16 00:01:11;;;;;;;8.57;4.20;;;;;;;19.92;100.00;99420.03;12214910;19;20013;-81
2023/07/16 00:05:13;;;;;;;6.22;4.03;;;;;;;19.91;100.00;99430.38;12191426;19;20015;-82
2023/07/16 00:09:16;;;;;;;5.97;3.13;;;;;;;19.83;100.00;99436.75;12215259;19;20010;-81
2023/07/16 00:13:18;;;;;;;8.93;3.90;;;;;;;19.73;100.00;99479.78;12211909;19;20010;-82
2023/07/16 00:17:19;;;;;;;9.10;4.30;;;;;;;19.73;100.00;99468.63;12192724;19;20349;-82
2023/07/16 00:21:21;;;;;;;7.03;3.92;;;;;;;19.73;100.00;99448.22;12213757;19;20031;-82
2023/07/16 00:25:23;;;;;;;9.52;4.95;;;;;;;19.71;100.00;99461.69;12212101;19;20014;-81
2023/07/16 00:29:25;;;;;;;8.38;5.22;;;;;;;19.68;100.00;99463.16;12215986;19;20532;-81
2023/07/16 00:33:27;;;;;;;8.23;4.10;;;;;;;19.67;100.00;99488.63;12216125;19;20013;-82
2023/07/16 00:37:28;;;;;;;8.23;4.38;;;;;;;19.70;100.00;99501.97;12196262;19;20006;-81
2023/07/16 00:41:30;;;;;;;8.25;4.95;;;;;;;19.70;100.00;99516.78;12212602;19;20028;-81
2023/07/16 00:45:32;;;;;;;6.43;4.03;;;;;;;19.64;100.00;99506.00;12214713;19;20364;-81
2023/07/16 00:49:34;;;;;;;5.93;3.53;;;;;;;19.57;100.00;99482.13;12191690;19;20011;-82
2023/07/16 00:53:36;;;;;;;4.97;2.97;;;;;;;19.54;100.00;99460.41;12218888;19;20007;-80
2023/07/16 00:57:39;;;;;;;4.90;2.90;;;;;;;19.52;100.00;99465.47;12238266;19;20010;-82
2023/07/16 01:01:42;;;;;;;8.55;3.08;;;;;;;19.45;100.00;99458.66;12243938;19;20013;-83
2023/07/16 01:06:15;;;;;;;4.88;2.63;;;;;;;19.33;100.00;99456.44;12271488;19;20014;-84
2023/07/16 01:10:17;;;;;;;6.53;2.50;;;;;;;19.27;100.00;99477.25;12262104;19;20018;-79
2023/07/16 01:14:20;;;;;;;4.60;2.13;;;;;;;19.19;100.00;99498.41;12186549;19;20010;-80
2023/07/16 01:18:22;;;;;;;3.88;2.83;;;;;;;19.09;100.00;99519.00;12212606;19;20022;-80
2023/07/16 01:22:29;;;;;;;9.87;2.83;;;;;;;18.96;100.00;99527.41;12196914;19;20011;-82
2023/07/16 01:27:02;;;;;;;6.53;2.40;;;;;;;18.87;100.00;99528.16;12214693;19;20033;-80
2023/07/16 01:31:04;;;;;;;5.85;2.40;;;;;;;18.76;100.00;99512.75;12214793;19;20011;-82
2023/07/16 01:35:07;;;;;;;;;;;;;;;18.63;100.00;99521.94;12192394;19;20010;-81
2023/07/16 01:39:09;;;;;;;4.55;2.40;;;;;;;18.50;100.00;99531.13;12217405;19;19926;-81
2023/07/16 01:43:11;;;;;;;3.97;1.98;;;;;;;18.33;100.00;99546.50;12216335;19;20031;-82
2023/07/16 01:47:28;;;;;;;6.38;2.22;;;;;;;18.25;100.00;99555.59;12195577;19;20007;-81
2023/07/16 01:51:29;;;;;;;6.30;2.55;;;;;;;18.18;100.00;99547.63;12212694;19;20066;-82
2023/07/16 01:55:31;;;;;;;4.85;2.05;;;;;;;18.07;100.00;99546.16;12194588;19;20066;-82
2023/07/16 01:59:33;;;;;;;6.70;2.80;;;;;;;17.98;100.00;99561.91;12217708;19;20035;-82
2023/07/16 02:03:35;;;;;;;5.80;2.38;;;;;;;17.92;100.00;99558.38;12215274;19;20019;-82
2023/07/16 02:07:39;;;;;;;7.07;2.05;;;;;;;17.92;100.00;99569.53;12195995;19;20015;-82
2023/07/16 02:11:41;;;;;;;9.80;2.67;;;;;;;17.91;100.00;99567.06;12219225;19;20081;-81
2023/07/16 02:15:43;;;;;;;5.57;2.47;;;;;;;17.90;100.00;99559.81;12216104;19;20010;-83
2023/07/16 02:19:45;;;;;;;6.47;2.28;;;;;;;17.93;100.00;99560.03;12192628;19;20033;-82
2023/07/16 02:23:47;;;;;;;5.03;2.53;;;;;;;17.96;100.00;99566.97;12217093;19;20402;-83
2023/07/16 02:27:49;;;;;;;6.82;2.85;;;;;;;17.95;100.00;99570.91;12218668;19;20006;-82
2023/07/16 02:31:50;;;;;;;7.22;2.67;;;;;;;17.88;100.00;99582.44;12194373;19;20594;-83
2023/07/16 02:35:52;;;;;;;9.20;2.33;;;;;;;17.82;100.00;99597.59;12219304;19;20013;-83
2023/07/16 02:39:55;;;;;;;4.72;2.47;;;;;;;17.80;100.00;99607.38;12217857;19;20014;-81
2023/07/16 02:44:01;;;;;;;5.90;2.00;;;;;;;17.71;100.00;99610.00;12206711;19;20002;-81
2023/07/16 02:48:05;;;;;;;4.65;2.72;;;;;;;17.65;100.00;99612.03;12269028;19;20013;-83
2023/07/16 02:52:07;;;;;;;5.45;3.10;;;;;;;17.62;100.00;99629.34;12221011;19;20006;-82
2023/07/16 02:56:09;;;;;;;3.60;2.08;;;;;;;17.55;100.00;99612.19;12199315;19;20007;-82
2023/07/16 03:00:11;;;;;;;5.40;2.50;;;;;;;17.48;100.00;99611.72;12218955;19;20014;-82
2023/07/16 03:04:12;;;;;;;8.57;2.70;;;;;;;17.47;100.00;99624.00;12222227;19;20006;-81
2023/07/16 03:08:14;;;;;;;10.20;3.17;;;;;;;17.46;100.00;99620.38;12200459;19;20029;-82
2023/07/16 03:17:26;;;;;;;7.05;2.38;;;;;;;17.39;100.00;99621.88;12228210;19;20461;-81
2023/07/16 03:21:45;;;;;;;3.85;2.17;;;;;;;17.35;100.00;99632.78;12226698;19;20018;-80
2023/07/16 03:31:03;;;;;;;7.65;2.78;;;;;;;17.21;100.00;99652.19;12213359;19;20009;-80
2023/07/16 03:35:28;;;;;;;7.00;2.75;;;;;;;17.21;100.00;99666.09;12195528;19;20078;-81
2023/07/16 03:39:31;;;;;;;5.20;2.38;;;;;;;17.17;100.00;99658.66;12220346;19;20019;-81
2023/07/16 03:43:43;;;;;;;8.73;2.90;;;;;;;17.14;100.00;99660.06;12197493;19;20003;-81
2023/07/16 03:47:52;;;;;;;6.50;2.10;;;;;;;17.08;100.00;99662.09;12215873;19;20468;-80
2023/07/16 03:51:54;;;;;;;4.97;2.20;;;;;;;17.09;100.00;99671.25;12215143;19;20015;-80
2023/07/16 03:55:55;;;;;;;6.50;2.72;;;;;;;17.05;100.00;99678.56;12193582;19;20077;-80
2023/07/16 03:59:58;;;;;;;8.23;3.03;;;;;;;17.03;100.00;99676.06;12220395;19;20007;-79
2023/07/16 04:04:00;;;;;;;7.15;3.47;;;;;;;16.98;100.00;99676.09;12223255;19;20003;-80
2023/07/16 04:08:02;;;;;;;11.70;2.87;;;;;;;16.98;100.00;99680.84;12204426;19;20014;-79
2023/07/16 04:12:05;;;;;;;5.60;2.72;;;;;;;16.96;100.00;99672.81;12226360;19;20054;-79
2023/07/16 04:16:07;;;;;;;6.35;2.45;;;;;;;16.93;100.00;99690.09;12226316;19;20011;-79
2023/07/16 04:20:09;;;;;;;12.10;3.53;;;;;;;16.89;100.00;99699.31;12202268;19;20010;-79
2023/07/16 04:24:11;;;;;;;8.07;2.65;;;;;;;16.85;100.00;99699.91;12227347;19;20034;-79
2023/07/16 04:28:12;;;;;;;6.78;2.83;;;;;;;16.81;100.00;99701.63;12229504;19;20007;-79
2023/07/16 04:32:14;;;;;;;8.77;2.72;;;;;;;16.79;100.00;99712.22;12211238;19;20019;-78
2023/07/16 04:36:16;;;;;;;4.75;2.70;;;;;;;16.79;100.00;99728.91;12235733;19;20432;-79
2023/07/16 04:40:18;;;;;;;8.33;2.40;;;;;;;16.78;100.00;99734.78;12236439;19;20076;-79
2023/07/16 04:44:20;;;;;;;7.20;3.00;;;;;;;16.78;100.00;99730.06;12212872;19;20036;-79
2023/07/16 04:48:22;;;;;;;8.45;2.83;;;;;;;16.81;100.00;99737.00;12237271;19;20477;-79
2023/07/16 04:52:23;;;;;;;6.05;2.53;;;;;;;16.84;100.00;99742.78;12229360;19;20014;-79
2023/07/16 04:56:25;;;;;;;5.55;2.45;;;;;;;16.86;100.00;99748.03;12235469;19;20018;-80
2023/07/16 05:00:27;;;;;;;6.78;2.75;;;;;;;16.92;100.00;99746.03;12234900;19;20006;-80
2023/07/16 05:04:29;;;;;;;5.68;2.67;;;;;;;16.93;100.00;99748.56;12214704;19;20002;-79
2023/07/16 05:08:31;;;;;;;4.60;2.22;;;;;;;16.97;100.00;99751.56;12232396;19;20045;-80
2023/07/16 05:12:32;;;;;;;5.82;2.13;;;;;;;17.04;100.00;99752.03;12232263;19;20014;-79
2023/07/16 05:16:34;;;;;;;6.05;2.50;;;;;;;17.12;100.00;99768.13;12207490;19;20019;-80
2023/07/16 05:20:36;;;;;;;6.57;2.40;;;;;;;17.19;100.00;99774.19;12228296;19;20054;-79
2023/07/16 05:24:38;;;;;;;6.40;2.30;;;;;;;17.23;100.00;99772.47;12236007;19;20341;-79
2023/07/16 05:28:40;;;;;;;11.05;2.50;;;;;;;17.31;100.00;99779.31;12209339;19;20011;-79
2023/07/16 05:32:41;;;;;;;5.60;2.38;;;;;;;17.31;100.00;99784.88;12230549;19;20010;-79
2023/07/16 05:36:46;;;;;;;4.70;2.40;;;;;;;17.35;100.00;99791.53;12226646;19;20488;-78
2023/07/16 05:40:49;;;;;;;4.78;2.20;;;;;;;17.43;100.00;99798.41;12203306;19;20007;-78
2023/07/16 05:44:51;;;;;;;7.30;2.25;;;;;;;17.45;100.00;99807.31;12223198;19;20015;-79
2023/07/16 05:48:53;;;;;;;8.07;3.00;;;;;;;17.52;100.00;99813.38;12223934;19;20014;-78
2023/07/16 05:52:55;;;;;;;5.38;1.90;;;;;;;17.56;100.00;99814.44;12209552;19;20038;-79
2023/07/16 05:56:57;;;;;;;8.98;2.70;;;;;;;17.66;100.00;99822.66;12226907;19;20013;-77
2023/07/16 06:00:58;;;;;;;6.13;2.23;;;;;;;17.72;100.00;99815.06;12214658;19;20017;-78
2023/07/16 06:05:00;;;;;;;6.40;2.28;;;;;;;17.77;100.00;99815.88;12196575;19;20056;-77
2023/07/16 06:09:02;;;;;;;6.73;2.60;;;;;;;17.88;100.00;99811.00;12218232;19;20064;-78
2023/07/16 06:13:04;;;;;;;6.77;2.47;;;;;;;18.03;100.00;99809.97;12221777;19;20015;-78
2023/07/16 06:17:06;;;;;;;6.07;2.60;;;;;;;18.12;100.00;99816.53;12196678;19;20017;-78
2023/07/16 06:21:08;;;;;;;5.32;2.42;;;;;;;18.20;100.00;99817.81;12214737;19;20496;-78
2023/07/16 06:25:10;;;;;;;7.80;2.30;;;;;;;18.32;100.00;99825.75;12230288;19;20003;-80
2023/07/16 06:29:12;;;;;;;;;;;;;;;18.35;100.00;99826.00;12204545;19;20010;-79
2023/07/16 06:33:14;;;;;;;10.55;3.00;;;;;;;18.47;100.00;99833.88;12214158;19;19927;-78
2023/07/16 06:37:16;;;;;;;9.73;2.58;;;;;;;18.71;100.00;99828.25;12213872;19;20065;-78
2023/07/16 06:41:18;;;;;;;5.70;2.13;;;;;;;18.98;100.00;99832.31;12190125;19;20633;-77
2023/07/16 06:45:20;;;;;;;5.10;2.73;;;;;;;19.15;100.00;99834.50;12213540;19;20030;-79
2023/07/16 06:49:22;;;;;;;13.93;2.83;;;;;;;19.20;100.00;99834.41;12215702;19;20019;-78
2023/07/16 06:53:24;;;;;;;5.93;2.25;;;;;;;19.33;100.00;99828.00;12183487;19;20739;-78
2023/07/16 06:57:25;;;;;;;10.20;3.53;;;;;;;19.66;100.00;99827.97;12215458;19;20006;-78
2023/07/16 07:01:27;;;;;;;7.53;2.50;;;;;;;19.86;100.00;99829.53;12193744;19;20017;-79
2023/07/16 07:05:29;;;;;;;6.47;2.50;;;;;;;20.20;100.00;99826.31;12216482;19;20019;-79
2023/07/16 07:09:31;;;;;;;8.30;3.75;;;;;;;20.35;100.00;99825.97;12213008;19;20466;-78
2023/07/16 07:13:33;;;;;;;6.57;2.75;;;;;;;20.33;95.55;99828.25;12190117;19;20390;-77
2023/07/16 07:17:35;;;;;;;9.52;2.22;;;;;;;20.56;92.86;99843.16;12205950;19;20007;-78
2023/07/16 07:21:37;;;;;;;6.18;2.70;;;;;;;20.79;89.88;99845.94;12205532;19;20007;-78
2023/07/16 07:25:39;;;;;;;7.55;3.08;;;;;;;20.97;85.75;99852.50;12187524;19;20018;-78
2023/07/16 07:29:40;;;;;;;10.67;3.13;;;;;;;21.27;86.46;99845.31;12207642;19;20114;-78
2023/07/16 07:33:42;;;;;;;8.30;3.53;;;;;;;21.36;85.02;99849.84;12206691;19;20006;-79
2023/07/16 07:37:44;;;;;;;9.43;3.10;;;;;;;21.33;83.38;99850.47;12186940;19;20086;-77
2023/07/16 07:41:46;;;;;;;12.77;3.03;;;;;;;21.08;80.14;99853.91;12209456;19;20078;-80
2023/07/16 07:45:48;;;;;;;7.03;3.10;;;;;;;21.04;82.79;99850.13;12211541;19;20010;-78
2023/07/16 07:49:51;;;;;;;10.67;2.53;;;;;;;21.24;80.34;99851.53;12190313;19;20011;-78
2023/07/16 07:53:53;;;;;;;4.63;2.83;;;;;;;21.46;78.13;99864.75;12209730;19;20007;-78
2023/07/16 07:57:55;;;;;;;6.10;3.20;;;;;;;21.45;76.45;99860.31;12210362;19;20020;-80
2023/07/16 08:01:58;;;;;;;11.80;3.03;;;;;;;21.39;73.19;99866.03;12194279;19;20019;-81
2023/07/16 08:05:59;;;;;;;10.38;3.05;;;;;;;21.52;72.89;99869.06;12218283;19;20031;-81
2023/07/16 08:10:01;;;;;;;5.87;2.67;;;;;;;21.42;72.29;99864.56;12213821;19;20022;-79
2023/07/16 08:14:03;;;;;;;9.17;2.80;;;;;;;21.22;73.97;99860.28;12202039;19;20119;-80
2023/07/16 08:18:05;;;;;;;10.07;3.00;;;;;;;21.42;71.89;99852.50;12220961;19;20011;-80
2023/07/16 08:22:07;;;;;;;8.80;2.90;;;;;;;21.96;70.27;99862.50;12227505;19;20007;-81
2023/07/16 08:26:08;;;;;;;7.47;2.67;;;;;;;22.40;67.66;99859.81;12205241;19;20052;-82
2023/07/16 08:30:11;;;;;;;8.65;2.35;;;;;;;22.74;64.85;99861.84;12225113;19;20027;-79
2023/07/16 08:34:13;;;;;;;7.87;2.27;;;;;;;22.81;64.11;99864.16;12227324;19;20504;-81
2023/07/16 08:38:15;;;;;;;7.13;2.77;;;;;;;22.93;62.50;99867.97;12200882;19;20006;-81
2023/07/16 08:42:17;;;;;;;10.77;3.00;;;;;;;22.80;63.82;99860.53;12224688;19;20006;-81
2023/07/16 08:46:19;;;;;;;7.25;3.00;;;;;;;22.70;63.21;99864.50;12224286;19;20014;-81
2023/07/16 08:50:23;;;;;;;7.75;2.67;;;;;;;22.90;62.14;99867.78;12204837;19;20006;-81
2023/07/16 08:54:25;;;;;;;9.27;2.65;;;;;;;23.30;62.64;99865.66;12223610;19;20021;-79
2023/07/16 08:58:29;;;;;;;8.30;2.93;;;;;;;23.62;60.77;99867.06;12200305;19;20010;-80
2023/07/16 09:02:31;;;;;;;10.48;3.13;;;;;;;23.65;59.48;99871.19;12224517;19;20032;-80
2023/07/16 09:06:33;;;;;;;8.15;2.60;;;;;;;23.57;59.21;99872.84;12255893;19;20063;-80
2023/07/16 09:10:36;;;;;;;7.05;2.72;;;;;;;23.19;61.29;99869.94;12235320;19;20010;-82
2023/07/16 09:14:41;;;;;;;8.25;2.63;;;;;;;23.17;60.23;99863.81;12265666;19;20007;-81
2023/07/16 09:18:43;;;;;;;7.90;2.90;;;;;;;23.32;58.76;99868.09;12242903;19;20011;-81
2023/07/16 09:22:47;;;;;;;6.10;2.75;;;;;;;23.35;55.02;99864.63;12203858;19;20103;-80
2023/07/16 09:26:50;;;;;;;7.38;2.70;;;;;;;23.61;55.13;99859.75;12226341;19;20018;-80
2023/07/16 09:30:53;;;;;;;8.20;2.75;;;;;;;23.16;53.87;99873.44;12223383;19;20014;-80
2023/07/16 09:34:55;;;;;;;8.10;2.45;;;;;;;22.55;57.15;99866.94;12203698;19;20018;-80
2023/07/16 09:38:58;;;;;;;11.90;3.20;;;;;;;22.55;59.65;99870.59;12226297;19;20050;-80
2023/07/16 09:43:01;;;;;;;7.78;2.20;;;;;;;23.04;54.98;99874.09;12227969;19;19998;-80
2023/07/16 09:47:03;;;;;;;7.03;2.50;;;;;;;23.38;55.51;99872.38;12203873;19;20467;-80
2023/07/16 09:51:10;;;;;;;4.53;2.28;;;;;;;23.12;53.83;99853.59;12219203;19;20018;-80
2023/07/16 09:55:14;;;;;;;7.43;2.67;;;;;;;23.25;54.80;99868.63;12224727;19;20018;-80
2023/07/16 09:59:19;;;;;;;5.88;2.60;;;;;;;23.61;51.56;99873.00;12207460;19;20022;-80
2023/07/16 10:03:21;;;;;;;5.72;2.20;;;;;;;23.93;50.46;99874.41;12224807;19;20006;-80
2023/07/16 10:07:26;;;;;;;4.90;2.22;;;;;;;24.40;47.09;99854.59;12251102;19;20098;-79
2023/07/16 10:11:36;;;;;;;4.68;2.22;;;;;;;24.90;47.40;99853.75;12224060;19;20018;-80
2023/07/16 10:15:39;;;;;;;7.03;2.45;;;;;;;25.74;45.41;99862.03;12223491;19;20481;-80
2023/07/16 10:19:57;;;;;;;5.95;2.38;;;;;;;25.91;41.52;99863.88;12199729;19;20453;-79
2023/07/16 10:23:59;;;;;;;5.40;1.98;;;;;;;26.06;41.75;99865.16;12218514;19;20011;-80
2023/07/16 10:28:01;;;;;;;6.88;2.05;;;;;;;25.99;41.54;99862.91;12220882;19;20014;-80
2023/07/16 10:32:07;;;;;;;6.35;2.25;;;;;;;26.00;41.66;99850.44;12191875;19;20027;-79
2023/07/16 10:36:09;;;;;;;8.02;2.35;;;;;;;25.95;39.59;99858.31;12218549;19;20002;-81
2023/07/16 10:40:12;;;;;;;3.63;1.55;;;;;;;25.85;40.02;99853.97;12218164;19;20022;-79
2023/07/16 10:44:15;;;;;;;5.43;2.28;;;;;;;25.87;41.20;99843.94;12200341;19;20025;-79
2023/07/16 10:48:17;;;;;;;6.00;1.92;;;;;;;26.05;40.69;99841.72;12224850;19;20020;-80
2023/07/16 10:52:21;;;;;;;5.88;2.80;;;;;;;26.33;39.49;99853.13;12216247;19;20408;-80
2023/07/16 10:56:22;;;;;;;5.53;1.88;;;;;;;26.30;39.68;99853.84;12199818;19;20010;-80
2023/07/16 11:00:24;;;;;;;4.18;2.00;;;;;;;26.19;38.86;99852.69;12217896;19;20010;-80
2023/07/16 11:04:33;;;;;;;6.80;2.17;;;;;;;25.54;40.31;99843.19;12197043;19;20114;-80
2023/07/16 11:08:35;;;;;;;5.45;2.20;;;;;;;25.77;40.03;99840.75;12221297;19;20010;-79
2023/07/16 11:12:38;;;;;;;5.18;1.92;;;;;;;25.91;38.02;99842.09;12218630;19;20006;-80
2023/07/16 11:16:39;;;;;;;7.43;2.20;;;;;;;26.24;38.01;99854.44;12197939;19;20010;-80
2023/07/16 11:20:41;;;;;;;6.78;2.13;;;;;;;26.48;37.51;99831.00;12216212;19;20082;-80
2023/07/16 11:24:45;;;;;;;6.30;2.33;;;;;;;26.68;37.66;99832.00;12217089;19;20031;-80
2023/07/16 11:28:50;;;;;;;2.53;1.55;;;;;;;26.98;35.60;99839.00;12195491;19;20025;-81
2023/07/16 11:32:53;;;;;;;5.25;2.03;;;;;;;27.34;35.35;99825.88;12215812;19;20024;-82
2023/07/16 11:36:55;;;;;;;5.57;2.20;;;;;;;27.42;34.60;99819.22;12215324;19;20007;-81
2023/07/16 11:41:00;;;;;;;9.27;2.47;;;;;;;27.25;35.42;99826.03;12195507;19;20014;-81
2023/07/16 11:45:03;;;;;;;4.90;2.00;;;;;;;27.46;35.20;99825.81;12219224;19;20460;-82
2023/07/16 11:49:05;;;;;;;7.32;2.28;;;;;;;26.94;34.93;99817.44;12219282;19;20026;-80
2023/07/16 11:53:07;;;;;;;3.67;1.60;;;;;;;27.24;35.14;99821.56;12193859;19;20006;-80
2023/07/16 11:57:09;;;;;;;4.82;2.03;;;;;;;27.90;33.48;99813.59;12216771;19;20483;-82
2023/07/16 12:01:11;;;;;;;7.72;2.13;;;;;;;28.26;32.93;99805.94;12216079;19;20010;-79
2023/07/16 12:05:13;;;;;;;5.15;2.20;;;;;;;28.14;32.80;99819.06;12195139;19;20028;-80
2023/07/16 12:09:16;;;;;;;7.50;2.60;;;;;;;28.55;33.16;99818.78;12216441;19;20007;-81
2023/07/16 12:13:18;;;;;;;4.60;2.05;;;;;;;28.88;32.35;99806.94;12218470;19;20015;-79
2023/07/16 12:17:20;;;;;;;6.40;2.15;;;;;;;28.99;31.81;99807.97;12193613;19;20022;-80
2023/07/16 12:21:22;;;;;;;4.43;2.08;;;;;;;28.31;31.74;99803.66;12213120;19;20010;-80
2023/07/16 12:25:24;;;;;;;;;;;;;;;27.77;32.75;99803.53;12208585;19;20015;-80
2023/07/16 12:29:26;;;;;;;4.57;2.53;;;;;;;28.76;31.45;99795.75;12216420;19;19922;-79
2023/07/16 12:33:28;;;;;;;8.80;2.42;;;;;;;29.87;30.32;99786.53;12209373;19;20018;-79
2023/07/16 12:37:30;;;;;;;5.28;2.20;;;;;;;31.30;29.22;99799.88;12191723;19;20018;-80
2023/07/16 12:41:36;;;;;;;6.35;2.60;;;;;;;32.05;26.92;99799.81;12219952;19;20014;-80
2023/07/16 12:45:37;;;;;;;;;;;;;;;32.00;27.17;99786.72;12229218;19;20369;-79
2023/07/16 12:49:39;;;;;;;4.35;2.75;;;;;;;31.58;27.18;99793.66;12212667;19;19930;-78
2023/07/16 12:53:43;;;;;;;5.03;2.35;;;;;;;31.62;26.85;99791.69;12235742;19;20018;-80
2023/07/16 12:57:45;;;;;;;6.50;2.17;;;;;;;31.45;27.28;99796.00;12226401;19;20427;-80
2023/07/16 13:01:46;;;;;;;;;;;;;;;30.88;29.01;99796.16;12203822;19;20061;-79
2023/07/16 13:05:48;;;;;;;6.80;3.05;;;;;;;30.95;28.16;99791.75;12220897;19;19918;-80
2023/07/16 13:09:50;;;;;;;8.07;2.83;;;;;;;31.65;27.65;99795.75;12223897;19;20017;-79
2023/07/16 13:14:09;;;;;;;5.70;2.35;;;;;;;32.24;26.48;99785.25;12201488;19;20007;-79
2023/07/16 13:18:11;;;;;;;4.95;2.67;;;;;;;31.77;26.56;99784.91;12221311;19;20495;-78
2023/07/16 13:22:14;;;;;;;5.60;2.83;;;;;;;31.07;27.51;99802.88;12218870;19;20017;-79
2023/07/16 13:26:16;;;;;;;5.47;2.92;;;;;;;31.33;27.49;99799.09;12199821;19;20007;-78
2023/07/16 13:30:18;;;;;;;6.38;2.90;;;;;;;32.79;26.00;99787.22;12220400;19;20027;-79
2023/07/16 13:34:20;;;;;;;5.72;3.05;;;;;;;33.12;25.17;99801.22;12215036;19;20010;-79
2023/07/16 13:38:22;;;;;;;5.00;2.80;;;;;;;34.66;24.33;99791.88;12200267;19;20035;-79
2023/07/16 13:42:23;;;;;;;6.35;3.35;;;;;;;35.58;23.07;99781.22;12221725;19;20046;-79
2023/07/16 13:46:25;;;;;;;6.25;3.10;;;;;;;33.73;24.64;99777.69;12201445;19;20085;-79
2023/07/16 13:50:27;;;;;;;5.55;3.38;;;;;;;32.72;25.40;99775.75;12216111;19;20007;-78
2023/07/16 13:54:29;;;;;;;8.23;3.78;;;;;;;33.63;24.21;99785.03;12215163;19;20010;-80
2023/07/16 13:58:31;;;;;;;6.30;2.63;;;;;;;34.73;23.48;99786.13;12204990;19;20006;-80
2023/07/16 14:02:35;;;;;;;7.00;3.75;;;;;;;35.85;23.09;99772.78;12245597;19;20296;-80
2023/07/16 14:06:37;;;;;;;5.80;3.05;;;;;;;37.02;21.63;99783.47;12233082;19;20515;-80
2023/07/16 14:10:39;;;;;;;6.82;3.30;;;;;;;36.93;21.22;99772.47;12200342;19;20010;-81
2023/07/16 14:14:41;;;;;;;7.22;3.72;;;;;;;36.75;21.58;99783.38;12221698;19;20018;-80
2023/07/16 14:18:43;;;;;;;5.22;3.50;;;;;;;37.20;20.90;99768.84;12216126;19;20495;-79
2023/07/16 14:22:44;;;;;;;10.00;3.45;;;;;;;37.71;20.36;99767.63;12198187;19;19999;-80
2023/07/16 14:26:47;;;;;;;6.28;3.63;;;;;;;38.19;20.08;99769.28;12215104;19;20021;-80
2023/07/16 14:30:48;;;;;;;6.57;3.28;;;;;;;38.35;20.12;99751.31;12216718;19;20007;-80
2023/07/16 14:34:50;;;;;;;5.85;3.95;;;;;;;38.73;19.63;99766.19;12194847;19;20011;-80
2023/07/16 14:38:52;;;;;;;11.10;3.72;;;;;;;39.03;19.08;99760.63;12228443;19;20010;-80
2023/07/16 14:42:54;;;;;;;6.22;3.70;;;;;;;38.97;18.69;99763.25;12236230;19;20737;-79
2023/07/16 14:46:56;;;;;;;6.90;3.75;;;;;;;37.80;19.63;99746.94;12210037;19;20357;-79
2023/07/16 14:50:58;;;;;;;5.35;3.90;;;;;;;37.15;20.40;99738.53;12230710;19;20014;-79
2023/07/16 14:55:00;;;;;;;7.45;3.85;;;;;;;35.78;21.47;99733.50;12217503;19;20010;-79
2023/07/16 14:59:02;;;;;;;8.65;4.47;;;;;;;33.76;22.94;99754.00;12191992;19;20034;-76
2023/07/16 15:03:05;;;;;;;7.30;4.57;;;;;;;32.39;24.42;99751.94;12213156;19;20015;-78
2023/07/16 15:07:08;;;;;;;6.30;4.15;;;;;;;32.44;24.71;99751.56;12213552;19;20465;-76
2023/07/16 15:11:10;;;;;;;9.30;3.80;;;;;;;33.04;23.91;99747.38;12188654;19;20027;-78
2023/07/16 15:15:13;;;;;;;6.15;3.60;;;;;;;33.06;24.34;99739.22;12216348;19;20183;-77
2023/07/16 15:19:16;;;;;;;6.68;3.85;;;;;;;33.32;24.20;99746.63;12209490;19;20090;-78
2023/07/16 15:23:18;;;;;;;9.13;4.30;;;;;;;34.86;22.33;99744.38;12188552;19;20014;-78
2023/07/16 15:27:20;;;;;;;6.80;3.78;;;;;;;35.45;22.22;99754.25;12213367;19;20018;-78
2023/07/16 15:31:27;;;;;;;5.13;3.70;;;;;;;33.49;23.66;99740.09;12213732;19;20023;-80
2023/07/16 15:35:32;;;;;;;6.35;3.72;;;;;;;32.09;24.82;99743.63;12185459;19;20017;-79
2023/07/16 15:39:34;;;;;;;8.80;3.75;;;;;;;30.81;26.22;99747.69;12212599;19;20077;-77
2023/07/16 15:43:35;;;;;;;7.40;3.80;;;;;;;29.91;27.75;99742.78;12190051;19;20010;-78
2023/07/16 15:47:37;;;;;;;8.77;4.32;;;;;;;29.70;27.83;99737.56;12212024;19;20023;-79
2023/07/16 15:51:41;;;;;;;7.32;3.95;;;;;;;29.37;28.37;99732.53;12209892;19;20007;-79
2023/07/16 15:55:43;;;;;;;7.55;3.58;;;;;;;29.01;28.80;99733.88;12189245;19;20015;-78
2023/07/16 15:59:45;;;;;;;8.65;4.03;;;;;;;28.73;29.19;99737.75;12209315;19;20011;-78
2023/07/16 16:03:47;;;;;;;6.60;3.80;;;;;;;28.40;29.44;99735.44;12208181;19;20007;-78
2023/07/16 16:08:18;;;;;;;8.23;3.90;;;;;;;28.43;29.68;99720.53;12185593;19;20006;-77
2023/07/16 16:12:19;;;;;;;8.35;3.72;;;;;;;28.23;29.62;99722.53;12211386;19;21975;-77
2023/07/16 16:16:23;;;;;;;8.25;3.78;;;;;;;27.89;29.46;99724.19;12214098;19;20006;-79
2023/07/16 16:20:25;;;;;;;6.50;3.70;;;;;;;27.44;30.01;99728.31;12192807;19;20030;-79
2023/07/16 16:24:27;;;;;;;6.20;3.35;;;;;;;27.26;30.53;99713.72;12219000;19;20006;-79
2023/07/16 16:28:28;;;;;;;7.85;3.65;;;;;;;27.07;31.19;99717.22;12207175;19;20464;-79
2023/07/16 16:32:30;;;;;;;5.18;3.15;;;;;;;26.94;31.71;99718.47;12225757;19;20014;-78
2023/07/16 16:36:32;;;;;;;7.97;3.60;;;;;;;27.06;31.79;99715.56;12220800;19;20013;-79
2023/07/16 16:40:35;;;;;;;7.47;4.40;;;;;;;26.87;32.07;99719.09;12203795;19;20023;-79
2023/07/16 16:44:36;;;;;;;6.28;3.75;;;;;;;26.65;31.92;99717.66;12224467;19;20464;-80
2023/07/16 16:48:39;;;;;;;7.00;3.63;;;;;;;26.42;31.97;99711.75;12224335;19;20014;-79
2023/07/16 16:52:44;;;;;;;7.70;3.50;;;;;;;26.60;32.48;99715.13;12199774;19;20170;-79
2023/07/16 16:56:46;;;;;;;6.60;3.72;;;;;;;26.86;32.28;99709.00;12223080;19;20013;-79
2023/07/16 17:00:51;;;;;;;7.80;3.85;;;;;;;26.60;32.28;99720.78;12220426;19;20051;-79
2023/07/16 17:04:55;;;;;;;10.68;3.50;;;;;;;26.24;32.10;99721.69;12202105;19;20010;-79
2023/07/16 17:08:57;;;;;;;7.07;3.70;;;;;;;26.09;32.68;99723.28;12265807;19;20006;-81
2023/07/16 17:12:59;;;;;;;9.05;3.92;;;;;;;26.02;33.18;99721.03;12279577;19;20016;-81
2023/07/16 17:17:01;;;;;;;6.83;3.93;;;;;;;25.94;32.95;99724.81;12256454;19;20037;-81
2023/07/16 17:21:04;;;;;;;7.20;3.88;;;;;;;25.84;33.06;99716.81;12247372;19;20292;-80
2023/07/16 17:25:07;;;;;;;7.90;3.65;;;;;;;25.79;33.35;99731.13;12230407;19;20447;-80
2023/07/16 17:29:08;;;;;;;;;;;;;;;25.59;33.52;99739.38;12205702;19;20922;-80
2023/07/16 17:33:11;;;;;;;8.20;3.88;;;;;;;25.47;34.00;99736.56;12227158;19;20284;-80
2023/07/16 17:37:15;;;;;;;6.28;3.60;;;;;;;25.42;34.17;99737.59;12220301;19;20007;-81
2023/07/16 17:41:17;;;;;;;6.22;3.60;;;;;;;25.41;34.30;99733.16;12202770;19;20038;-80
2023/07/16 17:45:20;;;;;;;8.85;3.95;;;;;;;25.34;34.10;99732.91;12221859;19;20011;-81
2023/07/16 17:49:22;;;;;;;7.90;3.55;;;;;;;25.32;33.94;99732.44;12227858;19;19998;-81
2023/07/16 17:53:24;;;;;;;12.38;4.18;;;;;;;25.25;35.14;99743.47;12207838;19;20010;-80
2023/07/16 17:57:26;;;;;;;8.32;3.35;;;;;;;25.17;34.69;99742.41;12262715;19;20027;-79
2023/07/16 18:01:31;;;;;;;9.95;4.00;;;;;;;25.22;34.56;99741.34;12203439;19;20006;-79
2023/07/16 18:05:33;;;;;;;5.35;3.70;;;;;;;25.13;34.57;99738.63;12221326;19;20540;-79
2023/07/16 18:09:39;;;;;;;7.78;3.80;;;;;;;24.99;35.23;99738.94;12219693;19;20015;-79
2023/07/16 18:13:40;;;;;;;7.60;3.87;;;;;;;24.75;35.34;99742.50;12195892;19;20042;-79
2023/07/16 18:17:46;;;;;;;9.07;4.50;;;;;;;24.49;35.49;99741.91;12212948;19;20022;-80
2023/07/16 18:21:48;;;;;;;7.32;3.42;;;;;;;24.38;36.13;99743.47;12216167;19;20031;-78
2023/07/16 18:26:04;;;;;;;6.63;3.60;;;;;;;24.36;36.29;99737.34;12199376;19;21257;-79
2023/07/16 18:30:06;;;;;;;8.38;4.35;;;;;;;24.51;36.20;99746.03;12216584;19;20015;-78
2023/07/16 18:34:08;;;;;;;8.73;3.55;;;;;;;24.37;36.40;99751.09;12214372;19;20024;-78
2023/07/16 18:38:10;;;;;;;7.27;3.40;;;;;;;24.21;36.36;99738.78;12179432;19;20468;-79
2023/07/16 18:42:12;;;;;;;6.60;3.60;;;;;;;24.07;36.78;99745.53;12206996;19;20366;-79
2023/07/16 18:46:18;;;;;;;10.50;3.65;;;;;;;23.91;37.12;99749.25;12215235;19;20011;-78
2023/07/16 18:50:21;;;;;;;7.78;3.80;;;;;;;23.75;37.88;99751.84;12194488;19;20396;-79
2023/07/16 18:54:22;;;;;;;13.30;3.47;;;;;;;23.62;37.94;99757.34;12216241;19;20056;-79